Airport View

Enter AWOS ICAO identifier for current METAR.

ex. KFNL

KFFM 210016Z AUTO 13008KT 10SM VCTS CLR 25/22 A2980 RMK AO2 LTG DSNT N AND NW

21 Sep 2019 00:34

Frequency: 110.4

Phone: 218-736-7216

Other Area AWOS: KBWP - KY63 - KETH - KDTL

TAF KAXN 202325Z 2100/2124 15012G19KT P6SM SCT180 FM210500 17013KT P6SM VCSH SCT025 BKN100 FM211100 18012KT 6SM -RA BR SCT012 BKN025 TEMPO 2111/2115 3SM TSRA BR BKN012CB FM211500 18016G25KT P6SM VCSH OVC008 FM211800 19014G24KT P6SM BKN017